createdAt,value
2017-08-24T00:00:25.122Z,21.77
2017-08-24T00:02:51.615Z,19.80
2017-08-24T00:05:18.055Z,23.37
2017-08-24T00:07:44.490Z,18.50
2017-08-24T00:10:10.909Z,24.33
2017-08-24T00:12:37.374Z,26.53
2017-08-24T00:15:03.796Z,25.43
2017-08-24T00:17:30.214Z,28.97
2017-08-24T00:19:56.635Z,33.20
2017-08-24T00:22:23.065Z,32.83
2017-08-24T00:24:49.484Z,31.03
2017-08-24T00:27:15.928Z,24.37
2017-08-24T00:29:42.366Z,33.37
2017-08-24T00:32:08.755Z,27.23
2017-08-24T00:34:35.153Z,29.37
2017-08-24T00:37:01.620Z,29.30
2017-08-24T00:39:28.096Z,29.03
2017-08-24T00:41:54.510Z,28.67
2017-08-24T00:44:20.904Z,33.60
2017-08-24T00:46:47.302Z,30.60
2017-08-24T00:49:13.749Z,26.00
2017-08-24T00:51:40.197Z,32.07
2017-08-24T00:54:06.651Z,31.93
2017-08-24T00:56:33.133Z,27.50
2017-08-24T00:58:59.546Z,27.63
2017-08-24T01:01:26.008Z,29.00
2017-08-24T01:03:52.453Z,27.73
2017-08-24T01:06:18.824Z,26.63
2017-08-24T01:08:45.206Z,28.10
2017-08-24T01:11:11.614Z,28.50
2017-08-24T01:13:38.040Z,34.60
2017-08-24T01:16:04.435Z,28.73
2017-08-24T01:18:30.840Z,33.70
2017-08-24T01:20:57.264Z,29.00
2017-08-24T01:23:23.928Z,33.47
2017-08-24T01:25:50.410Z,31.97
2017-08-24T01:28:16.854Z,33.00
2017-08-24T01:30:43.233Z,34.07
2017-08-24T01:33:09.617Z,32.50
2017-08-24T01:35:35.998Z,32.27
2017-08-24T01:38:02.425Z,30.60
2017-08-24T01:40:28.800Z,32.90
2017-08-24T01:42:55.149Z,35.80
2017-08-24T01:45:21.522Z,38.27
2017-08-24T01:47:47.927Z,34.60
2017-08-24T01:50:14.321Z,40.97
2017-08-24T01:52:40.766Z,50.70
2017-08-24T01:55:07.171Z,41.13
2017-08-24T01:57:33.542Z,37.50
2017-08-24T01:59:59.937Z,34.63
2017-08-24T02:02:26.344Z,38.70
2017-08-24T02:04:52.785Z,46.33
2017-08-24T02:07:19.181Z,40.80
2017-08-24T02:09:45.561Z,39.50
2017-08-24T02:12:11.933Z,36.77
2017-08-24T02:14:38.370Z,40.50
2017-08-24T02:17:04.828Z,40.30
2017-08-24T02:19:31.232Z,43.97
2017-08-24T02:21:57.624Z,44.57
2017-08-24T02:24:24.014Z,42.07
2017-08-24T02:26:50.403Z,41.47
2017-08-24T02:29:16.767Z,43.67
2017-08-24T02:31:43.120Z,43.80
2017-08-24T02:34:09.484Z,46.80
2017-08-24T02:36:35.874Z,56.60
2017-08-24T02:39:02.317Z,52.23
2017-08-24T02:41:28.705Z,54.10
2017-08-24T02:43:55.098Z,60.30
2017-08-24T02:46:21.498Z,59.83
2017-08-24T02:48:47.913Z,56.13
2017-08-24T02:51:14.303Z,54.13
2017-08-24T02:53:40.711Z,51.33
2017-08-24T02:56:07.127Z,50.63
2017-08-24T02:58:33.540Z,45.10
2017-08-24T03:00:59.925Z,49.13
2017-08-24T03:03:26.344Z,44.87
2017-08-24T03:05:52.755Z,43.80
2017-08-24T03:08:19.141Z,40.53
2017-08-24T03:10:45.547Z,37.20
2017-08-24T03:13:11.971Z,40.00
2017-08-24T03:15:38.363Z,38.10
2017-08-24T03:18:04.761Z,37.60
2017-08-24T03:20:31.165Z,35.87
2017-08-24T03:22:57.572Z,29.23
2017-08-24T03:25:24.002Z,26.27
2017-08-24T03:27:50.409Z,18.97
2017-08-24T03:30:16.793Z,20.73
2017-08-24T03:32:44.089Z,20.47
2017-08-24T03:35:10.470Z,12.07
2017-08-24T03:37:37.096Z,12.83
2017-08-24T03:40:03.497Z,13.10
2017-08-24T03:42:29.884Z,13.47
2017-08-24T03:44:56.254Z,13.17
2017-08-24T03:47:22.663Z,11.00
2017-08-24T03:49:49.032Z,12.43
2017-08-24T03:52:15.413Z,12.40
2017-08-24T03:54:41.809Z,11.13
2017-08-24T03:57:08.209Z,14.80
2017-08-24T03:59:34.597Z,17.60
2017-08-24T04:02:01.043Z,12.67
2017-08-24T04:04:27.448Z,17.90
2017-08-24T04:06:54.047Z,12.70
2017-08-24T04:09:20.423Z,13.90
2017-08-24T04:11:46.807Z,16.93
2017-08-24T04:14:13.206Z,28.67
2017-08-24T04:16:39.605Z,20.40
2017-08-24T04:19:06.025Z,21.77
2017-08-24T04:21:32.413Z,15.93
2017-08-24T04:23:58.794Z,17.57
2017-08-24T04:26:25.205Z,22.97
2017-08-24T04:28:51.574Z,16.50
2017-08-24T04:31:17.952Z,22.67
2017-08-24T04:33:44.303Z,15.80
2017-08-24T04:36:10.660Z,15.60
2017-08-24T04:38:37.040Z,14.03
2017-08-24T04:41:03.488Z,17.63
2017-08-24T04:43:29.860Z,16.07
2017-08-24T04:45:56.266Z,15.93
2017-08-24T04:48:22.655Z,17.30
2017-08-24T04:50:49.051Z,17.60
2017-08-24T04:53:15.518Z,20.50
2017-08-24T04:55:41.913Z,17.03
2017-08-24T04:58:08.313Z,23.43
2017-08-24T05:00:34.696Z,20.60
2017-08-24T05:03:01.073Z,19.30
2017-08-24T05:05:27.446Z,19.33
2017-08-24T05:07:53.807Z,25.07
2017-08-24T05:10:20.205Z,16.47
2017-08-24T05:12:46.603Z,19.83
2017-08-24T05:15:12.999Z,20.43
2017-08-24T05:17:39.402Z,24.03
2017-08-24T05:20:05.806Z,20.33
2017-08-24T05:22:32.200Z,21.50
2017-08-24T05:24:58.602Z,28.03
2017-08-24T05:27:24.996Z,15.80
2017-08-24T05:29:51.399Z,23.13
2017-08-24T05:32:17.799Z,25.87
2017-08-24T05:34:44.200Z,21.03
2017-08-24T05:37:10.596Z,30.73
2017-08-24T05:39:36.956Z,28.60
2017-08-24T05:42:03.398Z,21.47
2017-08-24T05:44:29.785Z,25.27
2017-08-24T05:46:56.184Z,27.00
2017-08-24T05:49:22.575Z,29.07
2017-08-24T05:51:48.994Z,23.33
2017-08-24T05:54:15.440Z,23.57
2017-08-24T05:56:41.868Z,24.77
2017-08-24T05:59:08.275Z,21.53
2017-08-24T06:01:34.649Z,23.83
2017-08-24T06:04:01.046Z,21.10
2017-08-24T06:06:27.445Z,24.23
2017-08-24T06:08:53.826Z,25.10
2017-08-24T06:11:20.187Z,23.73
2017-08-24T06:13:46.587Z,25.27
2017-08-24T06:16:12.970Z,22.13
2017-08-24T06:18:39.352Z,26.60
2017-08-24T06:21:05.761Z,23.33
2017-08-24T06:23:32.149Z,26.20
2017-08-24T06:25:58.507Z,28.73
2017-08-24T06:28:24.898Z,27.70
2017-08-24T06:30:51.319Z,23.23
2017-08-24T06:33:17.704Z,25.70
2017-08-24T06:35:44.349Z,25.00
2017-08-24T06:38:10.733Z,25.47
2017-08-24T06:40:37.120Z,26.37
2017-08-24T06:43:03.557Z,25.03
2017-08-24T06:45:29.954Z,24.97
2017-08-24T06:47:56.355Z,30.87
2017-08-24T06:50:22.694Z,23.53
2017-08-24T06:52:49.065Z,21.80
2017-08-24T06:55:15.454Z,22.93
2017-08-24T06:57:41.829Z,23.93
2017-08-24T07:00:08.187Z,25.30
2017-08-24T07:02:34.612Z,22.67
2017-08-24T07:05:01.005Z,21.60
2017-08-24T07:07:27.385Z,19.67
2017-08-24T07:09:53.761Z,20.90
2017-08-24T07:12:20.459Z,19.63
2017-08-24T07:14:46.831Z,22.50
2017-08-24T07:17:13.261Z,22.07
2017-08-24T07:19:39.644Z,25.17
2017-08-24T07:22:06.054Z,27.47
2017-08-24T07:24:32.484Z,25.53
2017-08-24T07:26:58.869Z,23.77
2017-08-24T07:29:25.289Z,25.27
2017-08-24T07:31:51.735Z,27.40
2017-08-24T07:34:18.173Z,29.20
2017-08-24T07:36:44.600Z,28.20
2017-08-24T07:39:10.990Z,31.23
2017-08-24T07:41:37.429Z,32.70
2017-08-24T07:44:03.845Z,28.80
2017-08-24T07:46:30.276Z,27.07
2017-08-24T07:48:56.675Z,35.40
2017-08-24T07:51:23.106Z,31.43
2017-08-24T07:53:49.536Z,27.23
2017-08-24T07:56:15.991Z,26.30
2017-08-24T07:58:42.392Z,26.47
2017-08-24T08:01:08.842Z,26.03
2017-08-24T08:03:35.266Z,29.17
2017-08-24T08:06:01.679Z,31.93
2017-08-24T08:08:28.082Z,27.77
2017-08-24T08:10:54.494Z,29.90
2017-08-24T08:13:20.846Z,33.60
2017-08-24T08:15:48.165Z,30.87
2017-08-24T08:18:14.617Z,33.13
2017-08-24T08:20:41.107Z,28.60
2017-08-24T08:23:07.545Z,31.83
2017-08-24T08:25:34.153Z,27.60
2017-08-24T08:28:00.605Z,27.33
2017-08-24T08:30:27.105Z,27.47
2017-08-24T08:32:53.646Z,26.57
2017-08-24T08:35:20.063Z,32.73
2017-08-24T08:37:46.420Z,32.33
2017-08-24T08:40:12.762Z,27.57
2017-08-24T08:42:39.138Z,26.70
2017-08-24T08:45:05.491Z,27.17
2017-08-24T08:47:31.858Z,28.07
2017-08-24T08:49:58.213Z,28.10
2017-08-24T08:52:24.569Z,27.17
2017-08-24T08:54:50.920Z,26.83
2017-08-24T08:57:17.320Z,26.07
2017-08-24T08:59:43.663Z,24.67
2017-08-24T09:02:10.035Z,27.20
2017-08-24T09:04:36.403Z,28.90
2017-08-24T09:07:02.773Z,28.37
2017-08-24T09:09:29.531Z,26.00
2017-08-24T09:11:55.874Z,26.97
2017-08-24T09:14:22.638Z,26.23
2017-08-24T09:16:49.009Z,26.97
2017-08-24T09:19:15.382Z,29.10
2017-08-24T09:21:41.729Z,27.40
2017-08-24T09:24:08.123Z,22.07
2017-08-24T09:26:34.555Z,20.93
2017-08-24T09:29:00.967Z,18.73
2017-08-24T09:31:27.343Z,19.23
2017-08-24T09:33:53.716Z,14.77
2017-08-24T09:36:20.095Z,17.23
2017-08-24T09:38:46.440Z,13.07
2017-08-24T09:41:12.785Z,12.23
2017-08-24T09:43:39.130Z,13.33
2017-08-24T09:46:05.488Z,17.93
2017-08-24T09:48:31.899Z,15.67
2017-08-24T09:50:58.291Z,16.47
2017-08-24T09:53:24.651Z,15.03
2017-08-24T09:55:51.013Z,14.57
2017-08-24T09:58:17.342Z,14.37
2017-08-24T10:00:43.719Z,15.40
2017-08-24T10:03:10.086Z,17.63
2017-08-24T10:05:42.461Z,18.93
2017-08-24T10:08:08.877Z,16.27
2017-08-24T10:10:35.334Z,16.97
2017-08-24T10:13:01.732Z,15.00
2017-08-24T10:15:28.118Z,17.03
2017-08-24T10:17:54.542Z,17.57
2017-08-24T10:20:20.900Z,18.67
2017-08-24T10:22:47.245Z,17.50
2017-08-24T10:25:13.635Z,21.57
2017-08-24T10:27:40.006Z,18.43
2017-08-24T10:30:06.370Z,21.30
2017-08-24T10:32:32.734Z,20.13
2017-08-24T10:34:59.093Z,19.70
2017-08-24T10:37:25.463Z,21.70
2017-08-24T10:39:51.804Z,19.30
2017-08-24T10:42:18.203Z,20.53
2017-08-24T10:44:44.545Z,19.60
2017-08-24T10:47:10.916Z,20.37
2017-08-24T10:49:37.287Z,21.60
2017-08-24T10:52:03.637Z,20.30
2017-08-24T10:54:30.001Z,16.63
2017-08-24T10:56:56.358Z,16.43
2017-08-24T10:59:22.746Z,14.50
2017-08-24T11:01:49.108Z,20.33
2017-08-24T11:04:15.491Z,18.17
2017-08-24T11:06:41.886Z,18.57
2017-08-24T11:09:08.253Z,21.47
2017-08-24T11:11:34.617Z,18.60
2017-08-24T11:14:00.995Z,19.90
2017-08-24T11:16:27.351Z,17.80
2017-08-24T11:18:53.743Z,20.50
2017-08-24T11:21:20.129Z,21.63
2017-08-24T11:23:46.497Z,24.67
2017-08-24T11:26:12.870Z,18.03
2017-08-24T11:28:39.232Z,21.17
2017-08-24T11:31:05.572Z,17.63
2017-08-24T11:33:31.937Z,17.97
2017-08-24T11:35:58.315Z,16.03
2017-08-24T11:38:24.719Z,15.73
2017-08-24T11:40:51.046Z,20.60
2017-08-24T11:43:17.418Z,14.97
2017-08-24T11:45:43.794Z,13.63
2017-08-24T11:48:10.188Z,13.83
2017-08-24T11:50:36.564Z,13.00
2017-08-24T11:53:02.930Z,11.80
2017-08-24T11:55:29.258Z,13.07
2017-08-24T11:57:55.595Z,13.07
2017-08-24T12:00:22.009Z,13.40
2017-08-24T12:02:48.386Z,14.93
2017-08-24T12:05:14.763Z,15.43
2017-08-24T12:07:41.112Z,15.10
2017-08-24T12:10:07.486Z,15.73
2017-08-24T12:12:33.834Z,16.63
2017-08-24T12:15:00.178Z,18.00
2017-08-24T12:17:26.557Z,16.93
2017-08-24T12:19:52.914Z,13.20
2017-08-24T12:22:19.294Z,14.03
2017-08-24T12:24:45.650Z,15.90
2017-08-24T12:27:12.019Z,11.27
2017-08-24T12:29:38.380Z,14.10
2017-08-24T12:32:04.731Z,16.40
2017-08-24T12:34:31.077Z,15.83
2017-08-24T12:36:57.413Z,16.37
2017-08-24T12:39:23.768Z,17.57
2017-08-24T12:41:50.116Z,17.90
2017-08-24T12:44:16.445Z,16.37
2017-08-24T12:46:42.808Z,15.47
2017-08-24T12:49:09.175Z,14.47
2017-08-24T12:51:35.543Z,14.57
2017-08-24T12:54:01.908Z,15.93
2017-08-24T12:56:28.300Z,14.37
2017-08-24T12:58:54.633Z,12.47
2017-08-24T13:01:20.981Z,12.60
2017-08-24T13:03:47.345Z,12.17
2017-08-24T13:06:13.693Z,12.23
2017-08-24T13:08:40.111Z,12.27
2017-08-24T13:11:06.497Z,10.27
2017-08-24T13:13:32.866Z,10.67
2017-08-24T13:15:59.224Z,11.43
2017-08-24T13:18:25.615Z,10.70
2017-08-24T13:20:52.310Z,11.87
2017-08-24T13:23:18.740Z,11.20
2017-08-24T13:25:45.375Z,12.50
2017-08-24T13:28:11.836Z,11.60
2017-08-24T13:30:38.275Z,10.47
2017-08-24T13:33:04.899Z,11.70
2017-08-24T13:35:31.290Z,7.17
2017-08-24T13:37:57.651Z,7.03
2017-08-24T13:40:24.049Z,6.60
2017-08-24T13:42:50.400Z,6.70
2017-08-24T13:45:16.804Z,6.40
2017-08-24T13:47:43.154Z,6.67
2017-08-24T13:50:09.592Z,6.93
2017-08-24T13:52:35.936Z,6.70
2017-08-24T13:55:02.336Z,11.67
2017-08-24T13:57:28.732Z,6.67
2017-08-24T13:59:55.133Z,7.90
2017-08-24T14:02:21.504Z,7.23
2017-08-24T14:04:47.876Z,8.03
2017-08-24T14:07:14.264Z,6.03
2017-08-24T14:09:40.615Z,4.63
2017-08-24T14:12:06.999Z,5.10
2017-08-24T14:14:33.451Z,4.20
2017-08-24T14:16:59.830Z,8.73
2017-08-24T14:19:26.213Z,4.97
2017-08-24T14:21:52.643Z,6.00
2017-08-24T14:24:19.052Z,4.07
2017-08-24T14:26:45.481Z,4.70
2017-08-24T14:29:11.867Z,5.20
2017-08-24T14:31:38.257Z,5.23
2017-08-24T14:34:04.676Z,5.53
2017-08-24T14:36:31.055Z,4.67
2017-08-24T14:38:57.426Z,5.33
2017-08-24T14:41:23.807Z,5.73
2017-08-24T14:43:50.192Z,5.73
2017-08-24T14:46:16.571Z,5.47
2017-08-24T14:48:42.940Z,5.47
2017-08-24T14:51:09.338Z,5.10
2017-08-24T14:53:35.720Z,4.50
2017-08-24T14:56:02.153Z,5.30
2017-08-24T14:58:29.136Z,5.40
2017-08-24T15:00:55.479Z,6.90
2017-08-24T15:03:21.887Z,6.30
2017-08-24T15:05:48.258Z,5.47
2017-08-24T15:08:14.622Z,7.10
2017-08-24T15:10:40.986Z,6.13
2017-08-24T15:13:07.376Z,6.10
2017-08-24T15:15:33.789Z,9.10
2017-08-24T15:18:00.276Z,4.53
2017-08-24T15:20:26.717Z,4.67
2017-08-24T15:22:53.087Z,5.90
2017-08-24T15:25:19.540Z,7.80
2017-08-24T15:27:45.979Z,7.10
2017-08-24T15:30:12.379Z,5.70
2017-08-24T15:32:38.735Z,5.20
2017-08-24T15:35:05.103Z,5.50
2017-08-24T15:37:31.569Z,10.50
2017-08-24T15:39:57.927Z,4.57
2017-08-24T15:42:24.339Z,11.80
2017-08-24T15:44:54.717Z,5.93
2017-08-24T15:47:21.125Z,5.57
2017-08-24T15:49:47.559Z,5.83
2017-08-24T15:52:14.434Z,6.17
2017-08-24T15:54:40.897Z,11.43
2017-08-24T15:57:07.383Z,6.13
2017-08-24T15:59:33.893Z,5.47
2017-08-24T16:02:00.311Z,8.00
2017-08-24T16:04:26.727Z,8.20
2017-08-24T16:06:53.156Z,5.53
2017-08-24T16:09:19.566Z,5.10
2017-08-24T16:11:45.974Z,7.23
2017-08-24T16:14:12.432Z,5.60
2017-08-24T16:16:38.834Z,4.57
2017-08-24T16:19:05.281Z,5.53
2017-08-24T16:21:33.660Z,6.63
2017-08-24T16:24:00.240Z,5.87
2017-08-24T16:26:26.676Z,4.40
2017-08-24T16:28:53.100Z,5.40
2017-08-24T16:31:19.531Z,5.87
2017-08-24T16:33:45.962Z,5.57
2017-08-24T16:36:12.432Z,6.30
2017-08-24T16:38:38.865Z,9.20
2017-08-24T16:41:05.727Z,5.73
2017-08-24T16:43:32.248Z,5.20
2017-08-24T16:45:58.735Z,5.60
2017-08-24T16:48:25.216Z,8.43
2017-08-24T16:50:51.661Z,6.00
2017-08-24T16:53:18.164Z,6.80
2017-08-24T16:55:44.624Z,8.63
2017-08-24T16:58:11.230Z,6.40
2017-08-24T17:00:38.427Z,6.80
2017-08-24T17:03:05.110Z,5.03
2017-08-24T17:05:31.520Z,5.93
2017-08-24T17:07:57.943Z,5.67
2017-08-24T17:10:24.365Z,5.00
2017-08-24T17:12:50.747Z,5.40
2017-08-24T17:15:17.227Z,5.43
2017-08-24T17:17:43.602Z,5.60
2017-08-24T17:20:10.019Z,6.43
2017-08-24T17:22:36.428Z,7.90
2017-08-24T17:25:02.872Z,5.27
2017-08-24T17:27:29.332Z,6.50
2017-08-24T17:29:55.802Z,6.40
2017-08-24T17:32:22.264Z,5.63
2017-08-24T17:34:48.753Z,5.30
2017-08-24T17:37:15.151Z,6.90
2017-08-24T17:39:41.656Z,5.40
2017-08-24T17:42:08.109Z,5.70
2017-08-24T17:44:35.192Z,6.97
2017-08-24T17:47:06.767Z,7.30
2017-08-24T17:49:34.140Z,4.60
2017-08-24T17:52:01.102Z,5.50
2017-08-24T17:54:27.538Z,5.83
2017-08-24T17:56:54.027Z,5.50
2017-08-24T17:59:20.407Z,5.20
2017-08-24T18:01:46.801Z,6.07
2017-08-24T18:04:13.269Z,6.57
2017-08-24T18:06:39.667Z,6.73
2017-08-24T18:09:06.142Z,6.67
2017-08-24T18:11:32.551Z,4.57
2017-08-24T18:13:59.000Z,5.60
2017-08-24T18:16:25.465Z,7.13
2017-08-24T18:18:51.913Z,5.70
2017-08-24T18:21:18.367Z,5.43
2017-08-24T18:23:44.873Z,6.77
2017-08-24T18:26:11.293Z,7.90
2017-08-24T18:28:37.789Z,5.83
2017-08-24T18:31:04.210Z,6.23
2017-08-24T18:33:30.704Z,5.83
2017-08-24T18:35:57.100Z,5.90
2017-08-24T18:38:23.568Z,6.30
2017-08-24T18:40:50.037Z,5.57
2017-08-24T18:43:16.549Z,7.80
2017-08-24T18:45:43.017Z,7.80
2017-08-24T18:48:09.560Z,8.07
2017-08-24T18:50:36.061Z,6.97
2017-08-24T18:53:02.607Z,8.10
2017-08-24T18:55:29.032Z,6.90
2017-08-24T18:57:55.474Z,9.10
2017-08-24T19:00:21.943Z,8.77
2017-08-24T19:02:48.315Z,6.30
2017-08-24T19:05:14.984Z,7.40
2017-08-24T19:07:41.391Z,8.47
2017-08-24T19:10:07.796Z,7.70
2017-08-24T19:12:34.166Z,8.10
2017-08-24T19:15:00.595Z,6.67
2017-08-24T19:17:27.020Z,6.90
2017-08-24T19:19:53.453Z,7.40
2017-08-24T19:22:19.871Z,7.43
2017-08-24T19:24:46.311Z,8.40
2017-08-24T19:27:12.776Z,7.83
2017-08-24T19:29:39.242Z,8.87
2017-08-24T19:32:05.750Z,9.43
2017-08-24T19:34:32.197Z,9.20
2017-08-24T19:36:58.615Z,8.70
2017-08-24T19:39:25.167Z,8.20
2017-08-24T19:41:51.801Z,9.07
2017-08-24T19:44:18.214Z,8.67
2017-08-24T19:46:44.673Z,7.80
2017-08-24T19:49:11.555Z,14.20
2017-08-24T19:51:38.031Z,8.70
2017-08-24T19:54:04.569Z,8.50
2017-08-24T19:56:31.013Z,8.90
2017-08-24T19:58:57.518Z,8.13
2017-08-24T20:01:24.389Z,7.50
2017-08-24T20:03:50.883Z,8.10
2017-08-24T20:06:17.423Z,11.93
2017-08-24T20:08:43.872Z,9.40
2017-08-24T20:11:10.393Z,8.80
2017-08-24T20:13:36.828Z,8.57
2017-08-24T20:16:03.243Z,8.67
2017-08-24T20:18:29.719Z,15.10
2017-08-24T20:20:56.159Z,9.70
2017-08-24T20:23:22.705Z,8.83
2017-08-24T20:25:49.203Z,9.40
2017-08-24T20:28:15.681Z,10.43
2017-08-24T20:30:42.226Z,9.47
2017-08-24T20:33:08.719Z,17.47
2017-08-24T20:35:35.903Z,10.97
2017-08-24T20:38:02.396Z,14.60
2017-08-24T20:40:36.017Z,13.47
2017-08-24T20:43:13.616Z,8.03
2017-08-24T20:45:40.021Z,8.30
2017-08-24T20:48:06.431Z,11.57
2017-08-24T20:50:32.905Z,9.43
2017-08-24T20:52:59.300Z,9.90
2017-08-24T20:55:25.728Z,11.60
2017-08-24T20:57:52.221Z,12.90
2017-08-24T21:00:18.715Z,9.10
2017-08-24T21:02:45.168Z,12.10
2017-08-24T21:05:11.624Z,8.40
2017-08-24T21:07:38.047Z,12.60
2017-08-24T21:10:04.559Z,9.53
2017-08-24T21:12:30.991Z,8.50
2017-08-24T21:14:57.407Z,8.30
2017-08-24T21:17:23.851Z,8.07
2017-08-24T21:19:50.273Z,8.00
2017-08-24T21:22:21.549Z,9.90
2017-08-24T21:24:48.153Z,9.43
2017-08-24T21:27:14.577Z,8.33
2017-08-24T21:29:41.000Z,9.47
2017-08-24T21:32:07.473Z,10.23
2017-08-24T21:34:33.870Z,7.80
2017-08-24T21:37:00.283Z,13.13
2017-08-24T21:39:26.688Z,9.67
2017-08-24T21:41:53.296Z,10.03
2017-08-24T21:44:20.001Z,10.47
2017-08-24T21:46:46.450Z,10.33
2017-08-24T21:49:12.890Z,10.67
2017-08-24T21:51:39.331Z,9.00
2017-08-24T21:54:05.772Z,8.33
2017-08-24T21:56:32.220Z,10.47
2017-08-24T21:58:58.597Z,8.00
2017-08-24T22:01:26.036Z,9.70
2017-08-24T22:03:52.489Z,8.90
2017-08-24T22:06:18.915Z,9.30
2017-08-24T22:08:45.770Z,8.30
2017-08-24T22:11:12.195Z,9.53
2017-08-24T22:13:38.640Z,7.90
2017-08-24T22:16:05.084Z,10.43
2017-08-24T22:18:31.927Z,11.93
2017-08-24T22:20:59.318Z,8.80
2017-08-24T22:23:25.855Z,8.00
2017-08-24T22:25:56.370Z,8.83
2017-08-24T22:28:22.844Z,8.83
2017-08-24T22:30:49.261Z,8.23
2017-08-24T22:33:15.666Z,10.80
2017-08-24T22:35:42.104Z,8.90
2017-08-24T22:38:08.584Z,7.47
2017-08-24T22:40:35.036Z,8.20
2017-08-24T22:43:01.449Z,7.77
2017-08-24T22:45:27.876Z,10.13
2017-08-24T22:47:54.308Z,7.40
2017-08-24T22:50:20.887Z,8.00
2017-08-24T22:52:47.352Z,7.50
2017-08-24T22:55:19.630Z,7.90
2017-08-24T22:57:52.117Z,8.70
2017-08-24T23:00:24.397Z,9.33
2017-08-24T23:02:56.664Z,7.40
2017-08-24T23:05:23.103Z,7.30
2017-08-24T23:07:49.552Z,8.43
2017-08-24T23:10:16.011Z,9.80
2017-08-24T23:12:42.436Z,11.83
2017-08-24T23:15:08.839Z,7.50
2017-08-24T23:17:35.351Z,8.40
2017-08-24T23:20:01.763Z,9.77
2017-08-24T23:22:28.154Z,5.90
2017-08-24T23:24:54.745Z,7.57
2017-08-24T23:27:21.236Z,8.40
2017-08-24T23:29:48.619Z,8.53
2017-08-24T23:32:15.120Z,7.90
2017-08-24T23:34:41.624Z,8.83
2017-08-24T23:37:08.072Z,9.13
2017-08-24T23:39:34.741Z,8.03
2017-08-24T23:42:01.156Z,6.90
2017-08-24T23:44:27.701Z,7.10
2017-08-24T23:46:54.306Z,7.43
2017-08-24T23:49:21.615Z,7.10
2017-08-24T23:51:48.071Z,8.53
2017-08-24T23:54:14.554Z,7.00
2017-08-24T23:56:41.857Z,7.63
2017-08-24T23:59:08.521Z,8.70
